createdAt,value
2022-11-13T00:01:07.850Z,174.44
2022-11-13T00:16:07.871Z,225.00
2022-11-13T00:31:07.791Z,225.00
2022-11-13T00:46:09.038Z,225.00
2022-11-13T01:01:07.992Z,225.00
2022-11-13T01:16:07.985Z,212.02
2022-11-13T01:31:08.119Z,125.55
2022-11-13T01:46:08.030Z,135.00
2022-11-13T02:01:08.221Z,135.00
2022-11-13T02:16:08.302Z,136.23
2022-11-13T02:31:08.214Z,129.34
2022-11-13T02:46:08.439Z,135.00
2022-11-13T03:01:08.315Z,135.00
2022-11-13T03:16:08.383Z,135.00
2022-11-13T03:31:08.424Z,135.00
2022-11-13T03:46:08.608Z,135.00
2022-11-13T04:01:08.436Z,135.00
2022-11-13T04:16:08.533Z,135.00
2022-11-13T04:31:08.347Z,135.00
2022-11-13T04:46:08.504Z,153.92
2022-11-13T05:01:08.582Z,222.93
2022-11-13T05:16:08.460Z,225.00
2022-11-13T05:31:08.377Z,225.00
2022-11-13T05:46:08.442Z,225.00
2022-11-13T06:01:08.556Z,225.00
2022-11-13T06:16:08.399Z,225.00
2022-11-13T06:31:08.571Z,225.00
2022-11-13T06:46:08.400Z,225.00
2022-11-13T07:01:08.652Z,225.00
2022-11-13T07:16:16.286Z,225.00
2022-11-13T07:31:08.577Z,225.00
2022-11-13T07:46:08.896Z,233.16
2022-11-13T08:01:08.711Z,234.05
2022-11-13T08:16:08.600Z,208.21
2022-11-13T08:31:08.670Z,120.25
2022-11-13T08:46:08.848Z,133.06
2022-11-13T09:01:08.819Z,121.15
2022-11-13T09:16:09.012Z,114.27
2022-11-13T09:31:09.026Z,114.02
2022-11-13T09:46:08.969Z,113.56
2022-11-13T10:01:08.963Z,114.42
2022-11-13T10:16:08.961Z,87.06
2022-11-13T10:31:09.071Z,111.50
2022-11-13T10:46:09.048Z,99.72
2022-11-13T11:01:09.068Z,88.94
2022-11-13T11:16:09.143Z,54.19
2022-11-13T11:31:09.176Z,81.15
2022-11-13T11:46:09.207Z,99.56
2022-11-13T12:01:09.377Z,109.81
2022-11-13T12:16:09.379Z,101.62
2022-11-13T12:31:09.524Z,126.67
2022-11-13T12:46:09.493Z,50.02
2022-11-13T13:01:09.381Z,27.42
2022-11-13T13:16:09.341Z,88.08
2022-11-13T13:31:09.432Z,27.45
2022-11-13T13:46:09.510Z,45.08
2022-11-13T14:01:18.974Z,72.21
2022-11-13T14:16:09.633Z,76.04
2022-11-13T14:31:09.617Z,76.66
2022-11-13T14:46:09.638Z,76.15
2022-11-13T15:01:09.660Z,84.49
2022-11-13T15:16:09.691Z,83.07
2022-11-13T15:31:09.707Z,86.66
2022-11-13T15:46:09.723Z,85.34
2022-11-13T16:01:09.674Z,73.53
2022-11-13T16:16:09.840Z,87.34
2022-11-13T16:31:09.991Z,102.53
2022-11-13T16:46:10.011Z,107.67
2022-11-13T17:01:09.973Z,98.96
2022-11-13T17:16:09.999Z,108.29
2022-11-13T17:31:09.988Z,106.85
2022-11-13T17:46:10.186Z,148.49
2022-11-13T18:01:10.040Z,188.73
2022-11-13T18:16:10.138Z,86.57
2022-11-13T18:31:10.121Z,77.42
2022-11-13T18:46:10.106Z,88.07
2022-11-13T19:01:10.166Z,86.38
2022-11-13T19:16:10.328Z,88.12
2022-11-13T19:31:10.148Z,92.18
2022-11-13T19:46:10.201Z,86.11
2022-11-13T20:01:10.274Z,88.68
2022-11-13T20:16:10.257Z,86.98
2022-11-13T20:31:10.362Z,110.20
2022-11-13T20:46:10.280Z,105.63
2022-11-13T21:01:10.365Z,126.69
2022-11-13T21:16:10.464Z,103.46
2022-11-13T21:31:10.513Z,103.81
2022-11-13T21:46:10.672Z,107.07
2022-11-13T22:01:10.463Z,97.81
2022-11-13T22:16:10.501Z,102.78
2022-11-13T22:31:10.591Z,99.35
2022-11-13T22:46:10.608Z,96.40
2022-11-13T23:01:10.669Z,90.71
2022-11-13T23:16:10.937Z,94.58
2022-11-13T23:31:10.765Z,93.27
2022-11-13T23:46:10.953Z,94.54
